Latest Coastal Weather Observations for Port Hedland

IDW60701

Issued at 7:32 pm WST Wednesday 27 July 2016 (issued every 10 minutes, with the page automatically refreshed every 10 minutes)

About coastal observations | Map of coastal stations | Coastal observations for WA | Marine services | Other Formats
Station Details ID: 004032 Name: PORT HEDLAND AIRPORT Lat: -20.37 Lon: 118.63 Height: 6.4 m
Data from the previous 72 hours. | See also: Recent months at Port Hedland
Date/Time
WST
Temp
°C
Wind Pressure Rain since
9am
mm
Weather Cloud Vis
km
Sea
Height
m
Swell
Dir  Spd
kts
Gust
kts
hPa Trend Height
m
Period
s
Dir
27/07:30pm 22.3 WSW 5 5 1016.9 - - - - 10 - - - -
27/07:00pm 22.2 WNW 5 5 1016.6 - - - - 10 - - - -
27/06:30pm 23.4 W 5 6 1016.2 - - - - 10 - - - -
27/06:00pm - - - - - - - - - - - - - -
27/05:30pm - NNW 6 7 - - 0.0 - - - - - - -
27/05:00pm 29.4 NNE 9 14 1015.2 - 0.0 - - 10 - - - -
27/04:30pm 31.4 E 15 19 1015.0 - 0.0 - - 10 - - - -
27/04:00pm 31.9 ESE 15 20 1014.9 - 0.0 - - 10 - - - -
27/03:30pm 31.6 E 14 21 1014.8 - 0.0 - - 10 - - - -
27/03:00pm 31.3 E 13 17 1014.9 - 0.0 - - 10 - - - -
27/02:30pm 31.6 E 14 21 1015.1 - 0.0 - - 10 - - - -
27/02:00pm 30.9 E 15 27 1015.3 - 0.0 - - 10 - - - -
27/01:53pm 30.8 E 16 27 1015.3 - 0.0 - - 10 - - - -
27/01:30pm 30.2 E 16 23 1015.4 - 0.0 - - 10 - - - -
27/01:06pm 30.5 E 17 28 1015.7 - 0.0 - - 10 - - - -
27/01:00pm 30.5 E 18 26 1015.8 - 0.0 - - 10 - - - -
27/12:30pm 30.1 E 18 26 1016.6 - 0.0 - - 10 - - - -
27/12:00pm 28.9 E 17 24 1017.2 - 0.0 - - 10 - - - -
27/11:55am 29.0 E 19 29 1017.3 - 0.0 - - 10 - - - -
27/11:30am 28.4 ESE 20 28 1017.7 - 0.0 - - 10 - - - -
27/11:00am 27.3 ESE 20 27 1018.1 - 0.0 - - 10 - - - -
27/10:42am 26.3 ESE 20 30 1018.4 - 0.0 - - 10 - - - -
27/10:30am 25.9 ESE 20 25 1018.5 - 0.0 - - 10 - - - -
27/10:00am 25.0 ESE 23 30 1018.8 - 0.0 - - 10 - - - -
27/09:42am 24.7 ESE 21 31 1018.8 - 0.0 - - 10 - - - -
27/09:30am 24.6 ESE 21 29 1018.9 - 0.0 - - 10 - - - -
27/09:00am 23.4 ESE 22 30 1018.7 - 0.0 - - 10 - - - -
27/08:45am 23.0 ESE 21 32 1018.5 - 0.0 - - 10 - - - -
27/08:30am 22.3 ESE 22 29 1018.5 - 0.0 - - 10 - - - -
27/08:06am 21.4 ESE 17 27 1018.4 - 0.0 - - 10 - - - -
27/08:00am 20.9 ESE 15 21 1018.4 - 0.0 - - 10 - - - -
27/07:30am 19.3 SE 10 15 1018.7 - 0.0 - - 10 - - - -
27/07:00am 17.8 SE 9 12 1018.4 - 0.0 - - 10 - - - -
27/06:30am 17.4 SE 9 12 1018.2 - 0.0 - - 10 - - - -
27/06:00am 17.8 SE 9 11 1017.9 - 0.0 - - 10 - - - -
27/05:30am 18.1 SE 10 13 1017.4 - 0.0 - - 10 - - - -
27/05:00am 18.4 SE 10 13 1017.2 - 0.0 - - 10 - - - -
27/04:30am 18.7 SE 11 16 1016.8 - 0.0 - - 10 - - - -
27/04:00am 19.0 SE 11 15 1016.9 - 0.0 - - 10 - - - -
27/03:30am 19.2 SE 11 15 1017.0 - 0.0 - - 10 - - - -
27/03:00am 19.5 SE 11 17 1016.8 - 0.0 - - 10 - - - -
27/02:30am 19.8 SE 10 14 1017.2 - 0.0 - - 10 - - - -
27/02:00am 19.9 SE 10 14 1017.3 - 0.0 - - 10 - - - -
27/01:30am 20.0 SE 9 13 1017.5 - 0.0 - - 10 - - - -
27/01:00am 20.0 SE 9 11 1017.8 - 0.0 - - 10 - - - -
27/12:30am 20.3 SE 8 11 1017.8 - 0.0 - - 10 - - - -
27/12:00am 17.8 SSE 7 8 1018.1 - 0.0 - - 10 - - - -
 
Date/Time
WST
Temp
°C
Wind Pressure Rain since
9am
mm
Weather Cloud Vis
km
Sea
Height
m
Swell
Dir  Spd
kts
Gust
kts
hPa Trend Height
m
Period
s
Dir
26/11:30pm 18.1 SSE 6 7 1018.4 - 0.0 - - 10 - - - -
26/11:00pm 18.4 SSE 7 7 1018.6 - 0.0 - - 10 - - - -
26/10:30pm 18.8 SSE 8 9 1018.6 - 0.0 - - 10 - - - -
26/10:00pm 19.2 SSE 7 8 1018.5 - 0.0 - - 10 - - - -
26/09:30pm 19.9 SSE 7 8 1018.7 - 0.0 - - 10 - - - -
26/09:00pm 20.6 SSE 7 8 1018.7 - 0.0 - - 10 - - - -
26/08:30pm 22.6 SE 7 8 1018.3 - 0.0 - - 10 - - - -
26/08:00pm 23.6 SSE 8 10 1018.0 - 0.0 - - 10 - - - -
26/07:30pm 24.2 SSE 8 10 1017.6 - 0.0 - - 10 - - - -
26/07:00pm 25.3 SSE 9 12 1017.1 - 0.0 - - 10 - - - -
26/06:30pm 26.2 SSE 9 13 1016.7 - 0.0 - - 10 - - - -
26/06:00pm 27.1 SE 10 13 1016.0 - 0.0 - - 10 - - - -
26/05:30pm 28.0 ESE 13 18 1015.6 - 0.0 - - 10 - - - -
26/05:00pm 28.6 SE 13 17 1015.4 - 0.0 - - 10 - - - -
26/04:30pm 29.0 SE 13 19 1015.3 - 0.0 - - 10 - - - -
26/04:00pm 29.4 SSE 13 19 1015.4 - 0.0 - - 10 - - - -
26/03:30pm 29.6 SE 14 21 1015.3 - 0.0 - - 10 - - - -
26/03:00pm 29.8 SE 14 19 1015.3 - 0.0 - - 10 - - - -
26/02:30pm 29.2 SE 15 25 1015.6 - 0.0 - - 10 - - - -
26/02:00pm 29.4 SE 13 18 1015.8 - 0.0 - - 10 - - - -
26/01:30pm 28.9 SSE 16 23 1016.1 - 0.0 - Mostly clear 10 - - - -
26/01:00pm 28.9 SE 14 21 1016.6 - 0.0 - - 10 - - - -
26/12:30pm 28.1 SE 15 21 1017.0 - 0.0 - - 10 - - - -
26/12:04pm 28.1 SE 15 25 1017.6 - 0.0 - - 10 - - - -
26/12:00pm 28.8 SE 14 21 1017.6 - 0.0 - - 10 - - - -
26/11:30am 28.1 SE 14 22 1018.0 - 0.0 - - 10 - - - -
26/11:00am 26.7 SE 14 21 1018.3 - 0.0 - - 10 - - - -
26/10:30am 26.1 SE 14 23 1018.8 - 0.0 - - 10 - - - -
26/10:00am 25.4 SE 15 20 1019.3 - 0.0 - - 10 - - - -
26/09:30am 24.9 SE 14 21 1019.2 - 0.0 - - 10 - - - -
26/09:00am 24.0 SE 15 21 1019.5 - 0.0 - - 10 - - - -
26/08:30am 23.2 SE 14 21 1019.2 - 0.0 - - 10 - - - -
26/08:00am 22.3 SE 13 19 1019.1 - 0.0 - - 10 - - - -
26/07:30am 21.4 SSE 10 15 1019.0 - 0.0 - - 10 - - - -
26/07:00am 20.3 SE 9 13 1018.3 - 0.0 - - 10 - - - -
26/06:30am 20.0 SE 11 15 1017.8 - 0.0 - - 10 - - - -
26/06:00am 20.3 SE 11 15 1017.6 - 0.0 - - 10 - - - -
26/05:30am 20.1 SE 9 13 1017.2 - 0.0 - - 10 - - - -
26/05:00am 20.4 SE 10 13 1016.8 - 0.0 - - 10 - - - -
26/04:30am 20.7 SE 10 13 1016.7 - 0.0 - - 10 - - - -
26/04:00am 21.1 SE 9 13 1016.7 - 0.0 - - 10 - - - -
26/03:30am 20.1 SE 7 9 1017.0 - 0.0 - - 10 - - - -
26/03:00am 19.4 SSE 7 8 1017.2 - 0.0 - - 10 - - - -
26/02:30am 19.9 SSE 8 10 1017.3 - 0.0 - - 10 - - - -
26/02:00am 19.8 SSE 8 10 1017.1 - 0.0 - - 10 - - - -
26/01:30am 20.6 S 7 9 1017.2 - 0.0 - - 10 - - - -
26/01:00am 20.4 SSE 7 8 1017.2 - 0.0 - - 10 - - - -
26/12:30am 20.0 SSE 7 8 1017.2 - 0.0 - - 10 - - - -
26/12:00am 20.8 S 7 9 1017.3 - 0.0 - - 10 - - - -
 
Date/Time
WST
Temp
°C
Wind Pressure Rain since
9am
mm
Weather Cloud Vis
km
Sea
Height
m
Swell
Dir  Spd
kts
Gust
kts
hPa Trend Height
m
Period
s
Dir
25/11:30pm 20.9 S 5 7 1017.4 - 0.0 - - 10 - - - -
25/11:00pm 21.3 SSE 7 8 1017.5 - 0.0 - - 10 - - - -
25/10:30pm 22.5 SE 5 6 1017.6 - 0.0 - - 10 - - - -
25/10:00pm 22.3 SSE 6 7 1017.6 - 0.0 - - 10 - - - -
25/09:30pm 23.1 SSE 5 7 1017.7 - 0.0 - - 10 - - - -
25/09:00pm 24.4 SE 6 8 1017.4 - 0.0 - - 10 - - - -
25/08:30pm 24.6 SE 7 8 1017.2 - 0.0 - - 10 - - - -
25/08:00pm 25.2 SE 6 7 1016.9 - 0.0 - - 10 - - - -
25/07:30pm 25.4 SE 5 7 1016.7 - 0.0 - - 10 - - - -
25/07:00pm 26.0 SE 6 8 1016.3 - 0.0 - - 10 - - - -
25/06:30pm 26.3 SSE 7 8 1016.1 - 0.0 - - 10 - - - -
25/06:00pm 27.6 SSE 7 8 1015.8 - 0.0 - - 10 - - - -
25/05:30pm 28.7 SE 8 11 1015.5 - 0.0 - - 10 - - - -
25/05:00pm 29.3 SE 9 13 1015.3 - 0.0 - - 10 - - - -
25/04:30pm 29.7 SSE 9 13 1015.3 - 0.0 - - 10 - - - -
25/04:00pm 29.8 SE 8 11 1015.1 - 0.0 - - 10 - - - -
25/03:30pm 30.1 SSE 9 13 1015.1 - 0.0 - - 10 - - - -
25/03:00pm 30.1 SSE 11 15 1014.9 - 0.0 - - 10 - - - -
25/02:30pm 29.5 SE 10 14 1015.0 - 0.0 - - 10 - - - -
25/02:00pm 29.5 SSE 11 15 1015.4 - 0.0 - Partly cloudy 10 - - - -
25/01:30pm 29.1 SSE 9 12 1015.9 - 0.0 - Cloudy 10 - - - -
25/01:00pm 28.9 SSE 10 14 1016.4 - 0.0 - Partly cloudy 10 - - - -
25/12:30pm 28.1 SE 10 15 1017.1 - 0.0 - Cloudy 10 - - - -
25/12:00pm 27.7 SSE 11 16 1017.6 - 0.0 - Mostly cloudy 10 - - - -
25/11:30am 27.0 SE 11 15 1018.1 - 0.0 - Cloudy 10 - - - -
25/11:00am 26.4 SE 13 19 1018.4 - 0.0 - Cloudy 10 - - - -
25/10:30am 25.7 ESE 11 17 1018.7 - 0.0 - Cloudy 10 - - - -
25/10:00am 25.2 ESE 11 16 1018.9 - 0.0 - Cloudy 10 - - - -
25/09:30am 24.8 ESE 11 16 1019.1 - 0.0 - Partly cloudy 10 - - - -
25/09:00am 23.3 ESE 11 15 1019.1 - 0.0 - Partly cloudy 10 - - - -
25/08:30am 22.2 ESE 13 18 1019.0 - 0.0 - Cloudy 10 - - - -
25/08:00am 21.5 SE 12 16 1018.7 - 0.0 - Cloudy 10 - - - -
25/07:30am 21.3 SE 11 15 1018.4 - 0.0 - Cloudy 10 - - - -
25/07:00am 20.8 SE 13 17 1017.9 - 0.0 - Cloudy 10 - - - -
25/06:30am 20.6 SE 11 16 1017.8 - 0.0 - Partly cloudy 10 - - - -
25/06:00am 20.5 SE 11 15 1017.5 - 0.0 - Mostly cloudy 10 - - - -
25/05:30am 20.6 SSE 10 14 1017.2 - 0.0 - Cloudy 10 - - - -
25/05:00am 20.8 SE 11 16 1016.9 - 0.0 - Cloudy 10 - - - -
25/04:30am 20.9 SE 13 17 1016.6 - 0.0 - Cloudy 10 - - - -
25/04:00am 21.0 SE 12 16 1016.7 - 0.0 - Cloudy 10 - - - -
25/03:30am 21.1 SSE 13 16 1016.9 - 0.0 - Cloudy 10 - - - -
25/03:00am 21.2 SE 12 15 1016.9 - 0.0 - Mostly cloudy 10 - - - -
25/02:30am 21.5 SE 12 17 1016.9 - 0.0 - Cloudy 10 - - - -
25/02:00am 21.5 SSE 13 17 1017.1 - 0.0 - Cloudy 10 - - - -
25/01:30am 21.6 SSE 14 19 1017.5 - 0.0 - Partly cloudy 10 - - - -
25/01:00am 21.7 SSE 13 19 1017.8 - 0.0 - Cloudy 10 - - - -
25/12:30am 22.0 SSE 16 21 1018.0 - 0.0 - Partly cloudy 10 - - - -
25/12:00am 22.6 SSE 14 19 1018.3 - 0.0 - Cloudy 10 - - - -
 
Date/Time
WST
Temp
°C
Wind Pressure Rain since
9am
mm
Weather Cloud Vis
km
Sea
Height
m
Swell
Dir  Spd
kts
Gust
kts
hPa Trend Height
m
Period
s
Dir
24/11:30pm 22.9 SSE 14 18 1018.4 - 0.0 - Cloudy 10 - - - -
24/11:00pm 23.2 SSE 13 16 1018.4 - 0.0 - Cloudy 10 - - - -
24/10:30pm 23.4 SSE 12 15 1018.4 - 0.0 - Cloudy 10 - - - -
24/10:00pm 23.8 SSE 11 14 1018.4 - 0.0 - Cloudy 10 - - - -
24/09:30pm 24.1 SSE 9 13 1018.2 - 0.0 - Cloudy 10 - - - -
24/09:00pm 24.1 SSE 7 9 1018.2 - 0.0 - Mostly cloudy 10 - - - -
24/08:30pm 24.2 SE 5 6 1018.4 - 0.0 - Cloudy 10 - - - -
24/08:00pm 24.5 SSE 7 9 1018.3 - 0.0 - Cloudy 10 - - - -

Other Formats:

Comma delimited format used in spreadsheet applications
http://www.bom.gov.au/fwo/IDW60701/IDW60701.94312.axf

JavaScript Object Notation format (JSON) in row-major order
http://www.bom.gov.au/fwo/IDW60701/IDW60701.94312.json